createdAt,value
2022-09-27T00:00:31.268Z,0.97
2022-09-27T00:02:59.076Z,0.80
2022-09-27T00:05:26.871Z,0.80
2022-09-27T00:07:54.603Z,0.70
2022-09-27T00:10:22.278Z,1.00
2022-09-27T00:12:50.026Z,1.20
2022-09-27T00:15:17.801Z,0.90
2022-09-27T00:17:46.846Z,0.90
2022-09-27T00:20:14.523Z,0.90
2022-09-27T00:22:43.339Z,0.93
2022-09-27T00:25:11.065Z,0.80
2022-09-27T00:27:38.807Z,0.70
2022-09-27T00:30:07.367Z,1.00
2022-09-27T00:32:35.068Z,0.97
2022-09-27T00:35:04.649Z,0.83
2022-09-27T00:37:32.720Z,0.73
2022-09-27T00:40:00.404Z,0.60
2022-09-27T00:42:28.111Z,0.70
2022-09-27T00:45:06.776Z,0.80
2022-09-27T00:47:41.993Z,0.70
2022-09-27T00:50:20.849Z,0.90
2022-09-27T00:53:05.325Z,0.60
2022-09-27T00:55:37.303Z,0.63
2022-09-27T00:58:06.803Z,0.80
2022-09-27T01:00:34.745Z,0.73
2022-09-27T01:03:04.648Z,0.70
2022-09-27T01:05:33.906Z,0.67
2022-09-27T01:08:02.120Z,0.83
2022-09-27T01:10:36.638Z,0.93
2022-09-27T01:13:12.616Z,0.90
2022-09-27T01:15:46.399Z,0.70
2022-09-27T01:18:32.009Z,0.97
2022-09-27T01:21:29.470Z,0.77
2022-09-27T01:24:19.464Z,0.80
2022-09-27T01:27:18.653Z,0.70
2022-09-27T01:30:00.109Z,0.80
2022-09-27T01:32:36.526Z,0.77
2022-09-27T01:35:08.017Z,0.80
2022-09-27T01:37:42.886Z,0.80
2022-09-27T01:40:19.203Z,0.60
2022-09-27T01:42:51.023Z,0.63
2022-09-27T01:45:23.194Z,1.03
2022-09-27T01:47:54.728Z,0.70
2022-09-27T01:50:27.938Z,0.80
2022-09-27T01:52:59.891Z,0.70
2022-09-27T01:55:31.923Z,0.80
2022-09-27T01:58:04.943Z,0.70
2022-09-27T02:00:33.563Z,0.70
2022-09-27T02:03:09.803Z,0.73
2022-09-27T02:05:43.033Z,0.80
2022-09-27T02:08:18.782Z,0.60
2022-09-27T02:10:49.579Z,0.60
2022-09-27T02:13:20.999Z,0.80
2022-09-27T02:15:55.166Z,0.80
2022-09-27T02:18:31.222Z,0.70
2022-09-27T02:21:02.024Z,0.60
2022-09-27T02:23:37.775Z,0.80
2022-09-27T02:26:14.690Z,0.80
2022-09-27T02:28:46.696Z,0.70
2022-09-27T02:31:14.831Z,0.90
2022-09-27T02:33:48.828Z,0.70
2022-09-27T02:36:17.494Z,0.80
2022-09-27T02:38:45.954Z,0.70
2022-09-27T02:41:15.745Z,0.77
2022-09-27T02:43:46.414Z,0.80
2022-09-27T02:46:33.691Z,1.03
2022-09-27T02:49:11.930Z,0.67
2022-09-27T02:51:47.229Z,0.90
2022-09-27T02:54:24.967Z,0.70
2022-09-27T02:57:02.918Z,0.70
2022-09-27T02:59:38.755Z,0.70
2022-09-27T03:02:13.776Z,0.70
2022-09-27T03:04:47.819Z,0.60
2022-09-27T03:07:17.151Z,0.73
2022-09-27T03:09:47.971Z,0.80
2022-09-27T03:12:20.640Z,0.70
2022-09-27T03:14:48.362Z,0.77
2022-09-27T03:17:16.120Z,0.70
2022-09-27T03:19:45.142Z,0.80
2022-09-27T03:22:12.932Z,0.70
2022-09-27T03:24:40.632Z,0.70
2022-09-27T03:27:08.484Z,0.80
2022-09-27T03:29:36.154Z,0.80
2022-09-27T03:32:03.987Z,0.87
2022-09-27T03:34:31.779Z,0.80
2022-09-27T03:37:00.826Z,1.00
2022-09-27T03:39:28.538Z,0.80
2022-09-27T03:41:56.725Z,0.80
2022-09-27T03:44:24.468Z,2.27
2022-09-27T03:46:52.210Z,0.90
2022-09-27T03:49:20.098Z,1.10
2022-09-27T03:51:48.071Z,1.20
2022-09-27T03:54:17.171Z,1.07
2022-09-27T03:56:44.821Z,0.90
2022-09-27T03:59:12.520Z,1.20
2022-09-27T04:01:40.251Z,1.00
2022-09-27T04:04:11.181Z,1.80
2022-09-27T04:06:39.106Z,1.13
2022-09-27T04:09:06.809Z,1.13
2022-09-27T04:11:35.822Z,1.97
2022-09-27T04:14:05.139Z,1.27
2022-09-27T04:16:33.687Z,1.53
2022-09-27T04:19:01.715Z,1.60
2022-09-27T04:21:29.453Z,1.57
2022-09-27T04:23:57.286Z,2.00
2022-09-27T04:26:25.804Z,1.67
2022-09-27T04:28:55.092Z,1.83
2022-09-27T04:31:22.979Z,1.50
2022-09-27T04:33:50.812Z,1.50
2022-09-27T04:36:29.278Z,2.10
2022-09-27T04:38:58.400Z,1.63
2022-09-27T04:41:28.248Z,1.60
2022-09-27T04:43:59.510Z,2.00
2022-09-27T04:46:31.453Z,1.30
2022-09-27T04:49:00.135Z,1.80
2022-09-27T04:51:28.039Z,1.73
2022-09-27T04:53:56.930Z,1.57
2022-09-27T04:56:24.631Z,1.80
2022-09-27T04:58:52.330Z,1.60
2022-09-27T05:01:21.481Z,1.20
2022-09-27T05:03:50.143Z,1.47
2022-09-27T05:06:17.823Z,1.30
2022-09-27T05:08:45.785Z,1.77
2022-09-27T05:11:13.433Z,1.40
2022-09-27T05:13:41.155Z,1.60
2022-09-27T05:16:09.494Z,1.50
2022-09-27T05:18:38.706Z,1.30
2022-09-27T05:21:06.576Z,1.40
2022-09-27T05:23:34.291Z,1.30
2022-09-27T05:26:04.900Z,1.23
2022-09-27T05:28:35.113Z,1.30
2022-09-27T05:31:03.541Z,1.40
2022-09-27T05:33:31.315Z,1.43
2022-09-27T05:36:01.633Z,1.20
2022-09-27T05:38:30.125Z,1.30
2022-09-27T05:40:57.957Z,1.57
2022-09-27T05:43:26.189Z,1.47
2022-09-27T05:45:53.911Z,1.60
2022-09-27T05:48:22.039Z,1.27
2022-09-27T05:50:49.707Z,1.80
2022-09-27T05:53:18.756Z,1.30
2022-09-27T05:55:46.429Z,1.70
2022-09-27T05:58:16.084Z,1.40
2022-09-27T06:00:44.349Z,1.20
2022-09-27T06:03:13.996Z,1.20
2022-09-27T06:05:42.203Z,0.90
2022-09-27T06:08:12.183Z,1.07
2022-09-27T06:10:42.137Z,1.57
2022-09-27T06:13:13.120Z,1.20
2022-09-27T06:15:43.974Z,1.50
2022-09-27T06:18:13.507Z,1.07
2022-09-27T06:20:44.546Z,1.10
2022-09-27T06:23:14.505Z,1.20
2022-09-27T06:25:43.788Z,1.20
2022-09-27T06:28:11.883Z,1.10
2022-09-27T06:30:40.698Z,1.80
2022-09-27T06:33:08.949Z,1.30
2022-09-27T06:35:37.252Z,1.90
2022-09-27T06:38:07.109Z,1.90
2022-09-27T06:40:34.995Z,1.80
2022-09-27T06:43:09.212Z,1.90
2022-09-27T06:45:37.642Z,1.60
2022-09-27T06:48:06.147Z,1.30
2022-09-27T06:50:35.901Z,1.33
2022-09-27T06:53:04.190Z,1.10
2022-09-27T06:55:32.383Z,1.07
2022-09-27T06:58:19.054Z,1.20
2022-09-27T07:00:50.259Z,1.13
2022-09-27T07:03:18.372Z,1.40
2022-09-27T07:05:55.724Z,1.00
2022-09-27T07:08:23.490Z,1.30
2022-09-27T07:10:51.446Z,1.10
2022-09-27T07:13:20.678Z,1.47
2022-09-27T07:15:49.979Z,1.10
2022-09-27T07:18:17.678Z,1.50
2022-09-27T07:20:45.394Z,1.00
2022-09-27T07:23:15.030Z,1.33
2022-09-27T07:25:42.864Z,1.60
2022-09-27T07:28:20.996Z,1.23
2022-09-27T07:30:56.864Z,1.50
2022-09-27T07:33:25.652Z,1.20
2022-09-27T07:35:53.387Z,1.30
2022-09-27T07:38:21.145Z,1.40
2022-09-27T07:40:50.678Z,1.20
2022-09-27T07:43:19.476Z,1.20
2022-09-27T07:45:47.301Z,1.20
2022-09-27T07:48:17.507Z,1.33
2022-09-27T07:50:45.208Z,1.13
2022-09-27T07:53:14.080Z,1.43
2022-09-27T07:55:42.401Z,1.23
2022-09-27T07:58:12.271Z,1.30
2022-09-27T08:00:42.457Z,1.13
2022-09-27T08:03:15.133Z,1.30
2022-09-27T08:05:44.342Z,1.50
2022-09-27T08:08:12.377Z,1.60
2022-09-27T08:10:44.126Z,1.70
2022-09-27T08:13:12.706Z,1.60
2022-09-27T08:15:40.391Z,1.30
2022-09-27T08:18:09.452Z,1.70
2022-09-27T08:20:37.204Z,1.80
2022-09-27T08:23:06.565Z,1.65
2022-09-27T08:25:34.267Z,1.53
2022-09-27T08:28:04.302Z,1.93
2022-09-27T08:30:32.941Z,1.57
2022-09-27T08:33:03.133Z,1.40
2022-09-27T08:35:35.553Z,1.50
2022-09-27T08:38:05.838Z,1.50
2022-09-27T08:40:47.432Z,1.70
2022-09-27T08:43:21.041Z,1.13
2022-09-27T08:46:02.973Z,1.23
2022-09-27T08:48:32.121Z,0.90
2022-09-27T08:51:01.769Z,1.07
2022-09-27T08:53:36.570Z,1.43
2022-09-27T08:56:09.010Z,2.07
2022-09-27T08:58:40.400Z,1.20
2022-09-27T09:01:15.195Z,1.20
2022-09-27T09:03:48.354Z,2.33
2022-09-27T09:06:20.233Z,1.43
2022-09-27T09:09:01.977Z,1.53
2022-09-27T09:12:04.202Z,1.40
2022-09-27T09:14:47.067Z,1.43
2022-09-27T09:17:25.634Z,1.47
2022-09-27T09:20:17.072Z,1.83
2022-09-27T09:23:10.827Z,1.47
2022-09-27T09:25:48.015Z,1.30
2022-09-27T09:28:30.991Z,1.63
2022-09-27T09:31:09.020Z,1.53
2022-09-27T09:33:41.571Z,1.10
2022-09-27T09:36:17.107Z,1.60
2022-09-27T09:38:48.968Z,1.20
2022-09-27T09:41:19.358Z,1.20
2022-09-27T09:43:53.159Z,1.47
2022-09-27T09:46:25.635Z,1.90
2022-09-27T09:48:58.633Z,1.00
2022-09-27T09:51:30.044Z,2.30
2022-09-27T09:54:01.053Z,1.47
2022-09-27T09:56:33.017Z,1.20
2022-09-27T09:59:03.980Z,1.20
2022-09-27T10:01:37.183Z,1.03
2022-09-27T10:04:05.204Z,1.10
2022-09-27T10:06:33.721Z,1.00
2022-09-27T10:09:01.657Z,1.00
2022-09-27T10:11:41.505Z,1.00
2022-09-27T10:14:14.063Z,1.63
2022-09-27T10:16:45.571Z,1.10
2022-09-27T10:19:17.057Z,1.43
2022-09-27T10:21:47.350Z,1.20
2022-09-27T10:24:18.728Z,1.20
2022-09-27T10:26:50.914Z,1.13
2022-09-27T10:29:24.627Z,1.10
2022-09-27T10:31:53.736Z,0.90
2022-09-27T10:34:27.330Z,1.10
2022-09-27T10:37:07.566Z,0.95
2022-09-27T10:39:37.025Z,1.00
2022-09-27T10:42:20.538Z,1.27
2022-09-27T10:44:49.643Z,1.30
2022-09-27T10:47:22.951Z,1.00
2022-09-27T10:49:52.559Z,1.23
2022-09-27T10:52:22.403Z,1.10
2022-09-27T10:54:56.242Z,1.20
2022-09-27T10:57:26.504Z,0.80
2022-09-27T10:59:58.540Z,0.77
2022-09-27T11:02:30.258Z,1.00
2022-09-27T11:05:15.446Z,1.10
2022-09-27T11:07:51.094Z,1.10
2022-09-27T11:10:28.611Z,1.10
2022-09-27T11:13:14.166Z,1.30
2022-09-27T11:16:00.789Z,0.97
2022-09-27T11:18:41.029Z,1.30
2022-09-27T11:21:21.115Z,0.83
2022-09-27T11:24:05.206Z,1.07
2022-09-27T11:26:44.727Z,0.90
2022-09-27T11:29:24.577Z,1.07
2022-09-27T11:32:12.479Z,0.90
2022-09-27T11:34:58.144Z,1.10
2022-09-27T11:37:37.432Z,1.10
2022-09-27T11:40:16.757Z,0.93
2022-09-27T11:43:08.078Z,0.90
2022-09-27T11:48:56.559Z,1.10
2022-09-27T11:51:39.281Z,1.40
2022-09-27T11:54:29.015Z,1.60
2022-09-27T11:57:07.570Z,1.50
2022-09-27T12:00:13.303Z,1.10
2022-09-27T12:03:02.849Z,1.00
2022-09-27T12:05:40.673Z,1.10
2022-09-27T12:08:34.689Z,0.90
2022-09-27T12:11:10.033Z,1.40
2022-09-27T12:13:42.651Z,1.10
2022-09-27T12:16:12.672Z,1.07
2022-09-27T12:18:42.211Z,1.17
2022-09-27T12:21:13.050Z,1.20
2022-09-27T12:23:44.374Z,1.10
2022-09-27T12:26:16.558Z,1.27
2022-09-27T12:28:51.033Z,1.00
2022-09-27T12:31:29.865Z,0.90
2022-09-27T12:34:05.740Z,1.40
2022-09-27T12:36:40.538Z,1.40
2022-09-27T12:39:15.131Z,1.20
2022-09-27T12:41:50.365Z,1.17
2022-09-27T12:44:18.420Z,1.40
2022-09-27T12:46:56.168Z,1.10
2022-09-27T12:49:34.123Z,1.47
2022-09-27T12:52:08.142Z,1.27
2022-09-27T12:55:05.107Z,1.63
2022-09-27T12:57:46.755Z,1.20
2022-09-27T13:00:19.718Z,1.30
2022-09-27T13:03:25.082Z,1.30
2022-09-27T13:06:12.190Z,1.63
2022-09-27T13:09:07.025Z,2.00
2022-09-27T13:11:47.301Z,1.40
2022-09-27T13:14:20.786Z,1.60
2022-09-27T13:16:49.896Z,0.93
2022-09-27T13:19:42.572Z,1.23
2022-09-27T13:22:31.131Z,1.70
2022-09-27T13:25:00.313Z,1.30
2022-09-27T13:27:41.804Z,2.00
2022-09-27T13:30:47.035Z,1.43
2022-09-27T13:33:49.300Z,1.90
2022-09-27T13:36:28.278Z,1.60
2022-09-27T13:39:17.151Z,1.90
2022-09-27T13:42:05.668Z,2.17
2022-09-27T13:44:43.042Z,2.10
2022-09-27T13:47:27.321Z,2.40
2022-09-27T13:50:00.446Z,2.50
2022-09-27T13:52:33.862Z,2.10
2022-09-27T13:55:04.638Z,2.40
2022-09-27T13:57:54.766Z,2.27
2022-09-27T14:00:24.628Z,2.40
2022-09-27T14:03:02.747Z,2.10
2022-09-27T14:05:35.850Z,2.80
2022-09-27T14:08:05.839Z,2.23
2022-09-27T14:10:35.046Z,2.57
2022-09-27T14:13:07.632Z,1.97
2022-09-27T14:15:36.425Z,2.27
2022-09-27T14:18:04.334Z,2.50
2022-09-27T14:20:34.064Z,1.73
2022-09-27T14:23:03.382Z,1.70
2022-09-27T14:25:31.733Z,1.60
2022-09-27T14:28:00.521Z,1.50
2022-09-27T14:30:30.834Z,1.50
2022-09-27T14:33:02.313Z,1.40
2022-09-27T14:35:49.063Z,1.40
2022-09-27T14:38:37.740Z,1.63
2022-09-27T14:41:08.826Z,1.50
2022-09-27T14:43:42.335Z,1.50
2022-09-27T14:46:27.659Z,1.63
2022-09-27T14:48:56.481Z,1.77
2022-09-27T14:51:29.307Z,1.70
2022-09-27T14:54:01.044Z,2.27
2022-09-27T14:56:31.811Z,2.93
2022-09-27T14:59:06.454Z,2.47
2022-09-27T15:01:38.064Z,2.70
2022-09-27T15:04:07.886Z,2.30
2022-09-27T15:06:37.628Z,2.50
2022-09-27T15:09:07.160Z,3.20
2022-09-27T15:11:35.368Z,2.93
2022-09-27T15:14:05.775Z,2.90
2022-09-27T15:16:35.438Z,3.00
2022-09-27T15:19:07.390Z,2.87
2022-09-27T15:21:37.400Z,2.43
2022-09-27T15:24:05.824Z,3.00
2022-09-27T15:26:40.101Z,2.83
2022-09-27T15:29:17.928Z,2.90
2022-09-27T15:31:47.258Z,2.20
2022-09-27T15:34:21.782Z,2.30
2022-09-27T15:36:56.239Z,2.60
2022-09-27T15:39:29.728Z,1.90
2022-09-27T15:42:07.361Z,1.60
2022-09-27T15:44:46.907Z,1.50
2022-09-27T15:47:48.327Z,1.30
2022-09-27T15:50:36.807Z,1.60
2022-09-27T15:53:06.628Z,1.20
2022-09-27T15:55:37.159Z,1.23
2022-09-27T15:58:08.201Z,1.40
2022-09-27T16:00:39.629Z,1.50
2022-09-27T16:03:10.653Z,1.53
2022-09-27T16:05:38.427Z,1.63
2022-09-27T16:08:06.204Z,1.60
2022-09-27T16:10:39.350Z,2.10
2022-09-27T16:13:07.254Z,1.63
2022-09-27T16:15:34.978Z,1.70
2022-09-27T16:18:02.726Z,1.70
2022-09-27T16:20:32.175Z,1.40
2022-09-27T16:23:00.430Z,1.60
2022-09-27T16:25:28.616Z,1.70
2022-09-27T16:27:58.999Z,1.63
2022-09-27T16:30:27.036Z,1.40
2022-09-27T16:32:55.243Z,1.60
2022-09-27T16:35:24.553Z,2.07
2022-09-27T16:37:53.645Z,1.60
2022-09-27T16:40:22.425Z,1.70
2022-09-27T16:42:50.712Z,1.53
2022-09-27T16:45:19.721Z,1.63
2022-09-27T16:47:48.251Z,2.00
2022-09-27T16:50:48.763Z,2.07
2022-09-27T16:53:18.094Z,2.10
2022-09-27T16:55:45.827Z,2.03
2022-09-27T16:58:13.568Z,2.13
2022-09-27T17:00:41.950Z,4.23
2022-09-27T17:03:10.216Z,3.33
2022-09-27T17:05:37.919Z,2.90
2022-09-27T17:08:05.937Z,2.90
2022-09-27T17:10:35.772Z,2.20
2022-09-27T17:13:03.509Z,2.50
2022-09-27T17:15:31.439Z,2.60
2022-09-27T17:17:59.139Z,2.87
2022-09-27T17:20:26.861Z,2.10
2022-09-27T17:22:54.543Z,1.67
2022-09-27T17:25:22.256Z,1.80
2022-09-27T17:27:51.274Z,1.60
2022-09-27T17:30:19.799Z,1.60
2022-09-27T17:32:47.546Z,2.00
2022-09-27T17:35:15.741Z,1.70
2022-09-27T17:37:43.636Z,1.30
2022-09-27T17:40:12.302Z,1.30
2022-09-27T17:42:40.038Z,1.60
2022-09-27T17:45:10.586Z,1.17
2022-09-27T17:47:55.665Z,1.70
2022-09-27T17:50:28.351Z,2.10
2022-09-27T17:52:58.041Z,1.50
2022-09-27T17:55:26.974Z,1.40
2022-09-27T17:57:54.894Z,1.50
2022-09-27T18:00:24.116Z,1.33
2022-09-27T18:02:52.538Z,1.10
2022-09-27T18:05:21.341Z,1.67
2022-09-27T18:07:49.350Z,1.70
2022-09-27T18:10:18.052Z,1.93
2022-09-27T18:12:45.767Z,1.93
2022-09-27T18:15:18.182Z,2.17
2022-09-27T18:17:52.423Z,1.83
2022-09-27T18:20:23.680Z,2.00
2022-09-27T18:22:51.829Z,1.80
2022-09-27T18:25:20.205Z,1.47
2022-09-27T18:27:50.680Z,1.40
2022-09-27T18:30:18.695Z,1.40
2022-09-27T18:32:50.410Z,2.20
2022-09-27T18:35:19.708Z,2.90
2022-09-27T18:37:48.087Z,2.17
2022-09-27T18:40:24.213Z,3.10
2022-09-27T18:43:04.212Z,2.60
2022-09-27T18:45:31.930Z,3.00
2022-09-27T18:48:01.207Z,3.13
2022-09-27T18:50:28.986Z,2.93
2022-09-27T18:52:56.817Z,2.93
2022-09-27T18:55:25.507Z,3.10
2022-09-27T18:57:54.466Z,2.73
2022-09-27T19:00:22.275Z,2.80
2022-09-27T19:02:50.080Z,2.70
2022-09-27T19:05:21.125Z,3.80
2022-09-27T19:07:48.976Z,3.60
2022-09-27T19:10:16.858Z,3.10
2022-09-27T19:12:44.600Z,3.70
2022-09-27T19:15:12.306Z,3.03
2022-09-27T19:17:40.043Z,3.20
2022-09-27T19:20:09.615Z,3.77
2022-09-27T19:22:38.702Z,3.70
2022-09-27T19:25:08.064Z,3.77
2022-09-27T19:27:40.196Z,3.10
2022-09-27T19:30:12.065Z,3.23
2022-09-27T19:32:39.880Z,4.00
2022-09-27T19:35:08.716Z,3.10
2022-09-27T19:37:37.765Z,3.80
2022-09-27T19:40:06.558Z,3.20
2022-09-27T19:42:34.357Z,3.30
2022-09-27T19:45:02.053Z,3.53
2022-09-27T19:47:29.846Z,3.30
2022-09-27T19:49:58.167Z,3.80
2022-09-27T19:52:25.970Z,3.60
2022-09-27T19:54:55.011Z,3.00
2022-09-27T19:57:23.001Z,3.40
2022-09-27T19:59:50.708Z,3.43
2022-09-27T20:02:18.574Z,3.30
2022-09-27T20:04:46.451Z,3.70
2022-09-27T20:07:14.358Z,3.47
2022-09-27T20:09:42.089Z,4.07
2022-09-27T20:12:11.195Z,4.10
2022-09-27T20:14:40.399Z,4.73
2022-09-27T20:17:09.445Z,4.23
2022-09-27T20:19:37.299Z,4.80
2022-09-27T20:22:05.002Z,4.77
2022-09-27T20:24:32.683Z,5.17
2022-09-27T20:27:00.436Z,4.97
2022-09-27T20:29:29.491Z,5.07
2022-09-27T20:32:22.954Z,5.43
2022-09-27T20:34:45.420Z,5.43
2022-09-27T20:37:13.156Z,5.40
2022-09-27T20:39:40.850Z,4.90
2022-09-27T20:42:09.474Z,4.80
2022-09-27T20:44:38.515Z,4.40
2022-09-27T20:47:06.330Z,4.83
2022-09-27T20:49:34.287Z,4.23
2022-09-27T20:52:02.323Z,4.57
2022-09-27T20:54:30.133Z,5.10
2022-09-27T20:56:57.911Z,5.20
2022-09-27T20:59:25.733Z,4.53
2022-09-27T21:01:54.923Z,4.13
2022-09-27T21:04:23.431Z,5.17
2022-09-27T21:06:52.532Z,5.30
2022-09-27T21:09:20.913Z,4.70
2022-09-27T21:11:51.533Z,5.00
2022-09-27T21:14:19.250Z,4.50
2022-09-27T21:16:47.308Z,4.63
2022-09-27T21:19:16.462Z,4.67
2022-09-27T21:21:44.251Z,4.67
2022-09-27T21:24:12.604Z,5.47
2022-09-27T21:26:40.371Z,4.57
2022-09-27T21:29:12.887Z,4.23
2022-09-27T21:31:42.048Z,4.47
2022-09-27T21:34:10.253Z,3.63
2022-09-27T21:36:40.283Z,4.00
2022-09-27T21:39:10.250Z,4.03
2022-09-27T21:41:39.364Z,4.17
2022-09-27T21:44:10.477Z,3.37
2022-09-27T21:46:41.397Z,4.23
2022-09-27T21:49:11.907Z,3.60
2022-09-27T21:51:42.354Z,3.30
2022-09-27T21:54:13.411Z,3.03
2022-09-27T21:56:42.233Z,2.83
2022-09-27T21:59:13.067Z,3.53
2022-09-27T22:01:43.539Z,3.00
2022-09-27T22:04:12.631Z,3.17
2022-09-27T22:06:42.288Z,3.80
2022-09-27T22:09:14.385Z,4.60
2022-09-27T22:11:44.160Z,3.90
2022-09-27T22:14:13.955Z,4.38
2022-09-27T22:16:41.999Z,4.30
2022-09-27T22:19:12.005Z,3.93
2022-09-27T22:21:41.755Z,4.00
2022-09-27T22:24:13.218Z,4.63
2022-09-27T22:26:42.471Z,4.60
2022-09-27T22:29:10.558Z,4.37
2022-09-27T22:31:38.720Z,5.17
2022-09-27T22:34:10.718Z,5.40
2022-09-27T22:36:38.440Z,5.00
2022-09-27T22:39:07.849Z,5.90
2022-09-27T22:41:36.251Z,5.50
2022-09-27T22:44:03.996Z,4.70
2022-09-27T22:46:31.854Z,5.50
2022-09-27T22:48:59.775Z,5.07
2022-09-27T22:51:27.548Z,5.40
2022-09-27T22:53:55.321Z,6.10
2022-09-27T22:56:24.614Z,5.63
2022-09-27T22:58:52.347Z,6.20
2022-09-27T23:01:22.178Z,7.60
2022-09-27T23:03:51.589Z,5.07
2022-09-27T23:06:21.651Z,6.07
2022-09-27T23:08:49.861Z,5.60
2022-09-27T23:11:19.560Z,5.50
2022-09-27T23:13:49.751Z,5.10
2022-09-27T23:16:20.023Z,5.53
2022-09-27T23:18:48.166Z,4.83
2022-09-27T23:21:16.936Z,4.90
2022-09-27T23:23:46.703Z,5.10
2022-09-27T23:26:16.224Z,5.13
2022-09-27T23:28:44.692Z,5.07
2022-09-27T23:31:16.668Z,5.57
2022-09-27T23:33:46.306Z,5.00
2022-09-27T23:36:16.288Z,4.30
2022-09-27T23:38:45.559Z,4.90
2022-09-27T23:41:14.076Z,4.30
2022-09-27T23:43:48.460Z,5.30
2022-09-27T23:46:19.124Z,4.63
2022-09-27T23:48:46.892Z,5.07
2022-09-27T23:51:14.614Z,5.97
2022-09-27T23:53:42.436Z,4.50
2022-09-27T23:56:13.363Z,4.70
2022-09-27T23:58:42.678Z,4.37
